Wetterdaten: Montag, 28.08.2023
Datum Zeit Temp. Aussen Temp. o. S. Temp +5cm Feuchte Auss Luftdruck Regen Sonnenschein Regendauer Solar Windben Empfang
28.08.2023 08:00 11,6 C 11,1 C 0,0 C 97 % 1012,7 hPa 0,0 l/m 0 min 0 min 23 W/m 0,0 km/h (0 Bft) 100,00 %
28.08.2023 08:05 11,6 C 11,1 C 0,0 C 97 % 1012,8 hPa 0,0 l/m 0 min 0 min 25 W/m 0,0 km/h (0 Bft) 100,00 %
28.08.2023 08:10 11,6 C 11,7 C 0,0 C 97 % 1012,7 hPa 0,0 l/m 0 min 0 min 28 W/m 0,0 km/h (0 Bft) 100,00 %
28.08.2023 08:15 11,7 C 11,7 C 0,0 C 97 % 1012,8 hPa 0,0 l/m 0 min 0 min 30 W/m 0,0 km/h (0 Bft) 100,00 %
28.08.2023 08:20 11,8 C 11,7 C 0,0 C 97 % 1012,7 hPa 0,0 l/m 0 min 0 min 31 W/m 0,0 km/h (0 Bft) 100,00 %
28.08.2023 08:25 11,8 C 11,7 C 8,9 C 97 % 1012,7 hPa 0,0 l/m 0 min 0 min 32 W/m 0,0 km/h (0 Bft) 100,00 %
28.08.2023 08:30 11,9 C 11,7 C 8,9 C 97 % 1012,6 hPa 0,0 l/m 0 min 0 min 34 W/m 0,0 km/h (0 Bft) 100,00 %
28.08.2023 08:35 11,9 C 12,2 C 8,9 C 97 % 1012,7 hPa 0,0 l/m 0 min 0 min 35 W/m 0,0 km/h (0 Bft) 100,00 %
28.08.2023 08:40 12,0 C 12,2 C 8,9 C 98 % 1012,7 hPa 0,0 l/m 0 min 0 min 39 W/m 0,0 km/h (0 Bft) 100,00 %
28.08.2023 08:45 12,1 C 12,2 C 9,4 C 98 % 1012,6 hPa 0,0 l/m 0 min 0 min 43 W/m 0,0 km/h (0 Bft) 100,00 %
28.08.2023 08:50 12,2 C 12,8 C 9,4 C 98 % 1012,6 hPa 0,0 l/m 0 min 0 min 54 W/m 0,0 km/h (0 Bft) 100,00 %
28.08.2023 08:56 12,6 C 12,8 C 9,4 C 98 % 1012,6 hPa 0,0 l/m 5 min 0 min 236 W/m 6,4 km/h (2 Bft) 100,00 %
28.08.2023 08:58 12,6 C 13,3 C 9,4 C 98 % 1012,5 hPa 0,0 l/m 2 min 0 min 269 W/m 3,2 km/h (1 Bft) 100,00 %
28.08.2023 09:00 12,7 C 13,3 C 10,0 C 98 % 1012,5 hPa 0,0 l/m 2 min 0 min 277 W/m 6,4 km/h (2 Bft) 100,00 %
28.08.2023 09:02 12,8 C 13,3 C 10,0 C 98 % 1012,5 hPa 0,0 l/m 2 min 0 min 264 W/m 6,4 km/h (2 Bft) 91,49 %
28.08.2023 09:04 12,9 C 13,9 C 10,0 C 98 % 1012,5 hPa 0,0 l/m 2 min 0 min 261 W/m 6,4 km/h (2 Bft) 100,00 %
28.08.2023 09:06 13,1 C 14,4 C 10,0 C 98 % 1012,5 hPa 0,0 l/m 2 min 0 min 259 W/m 6,4 km/h (2 Bft) 98,31 %
28.08.2023 09:08 13,2 C 15,6 C 10,0 C 98 % 1012,5 hPa 0,0 l/m 2 min 0 min 280 W/m 6,4 km/h (2 Bft) 100,00 %
28.08.2023 09:10 13,3 C 16,7 C 10,0 C 98 % 1012,5 hPa 0,0 l/m 2 min 0 min 295 W/m 6,4 km/h (2 Bft) 97,87 %
28.08.2023 09:12 13,4 C 17,2 C 10,6 C 98 % 1012,5 hPa 0,0 l/m 2 min 0 min 299 W/m 3,2 km/h (1 Bft) 95,74 %
28.08.2023 09:14 13,5 C 16,7 C 10,6 C 98 % 1012,5 hPa 0,0 l/m 2 min 0 min 297 W/m 3,2 km/h (1 Bft) 95,74 %
28.08.2023 09:16 13,6 C 16,7 C 10,6 C 98 % 1012,5 hPa 0,0 l/m 2 min 0 min 281 W/m 3,2 km/h (1 Bft) 95,74 %
28.08.2023 09:18 13,7 C 16,7 C 10,6 C 98 % 1012,5 hPa 0,0 l/m 0 min 0 min 191 W/m 3,2 km/h (1 Bft) 95,65 %
28.08.2023 09:20 13,8 C 16,7 C 10,6 C 98 % 1012,5 hPa 0,0 l/m 2 min 0 min 241 W/m 0,0 km/h (0 Bft) 95,74 %
28.08.2023 09:22 13,9 C 16,7 C 10,6 C 98 % 1012,6 hPa 0,0 l/m 2 min 0 min 273 W/m 6,4 km/h (2 Bft) 91,49 %
28.08.2023 09:24 14,0 C 16,7 C 10,6 C 98 % 1012,6 hPa 0,0 l/m 2 min 0 min 245 W/m 6,4 km/h (2 Bft) 95,74 %
28.08.2023 09:26 14,1 C 16,7 C 11,1 C 98 % 1012,6 hPa 0,0 l/m 2 min 0 min 277 W/m 12,9 km/h (3 Bft) 93,62 %
28.08.2023 09:28 14,2 C 16,1 C 11,1 C 98 % 1012,7 hPa 0,0 l/m 2 min 0 min 313 W/m 3,2 km/h (1 Bft) 95,74 %
28.08.2023 09:30 14,3 C 16,1 C 11,1 C 98 % 1012,7 hPa 0,0 l/m 2 min 0 min 238 W/m 3,2 km/h (1 Bft) 95,74 %
28.08.2023 09:32 14,3 C 16,1 C 11,1 C 98 % 1012,8 hPa 0,0 l/m 0 min 0 min 187 W/m 6,4 km/h (2 Bft) 97,83 %
28.08.2023 09:34 14,3 C 15,6 C 11,1 C 98 % 1012,8 hPa 0,0 l/m 0 min 0 min 189 W/m 3,2 km/h (1 Bft) 93,62 %
28.08.2023 09:36 14,3 C 15,6 C 11,1 C 98 % 1012,8 hPa 0,0 l/m 0 min 0 min 126 W/m 3,2 km/h (1 Bft) 93,62 %
28.08.2023 09:38 14,4 C 15,6 C 11,1 C 98 % 1012,7 hPa 0,0 l/m 0 min 0 min 143 W/m 3,2 km/h (1 Bft) 95,74 %
28.08.2023 09:40 14,5 C 15,6 C 11,1 C 97 % 1012,7 hPa 0,0 l/m 0 min 0 min 166 W/m 3,2 km/h (1 Bft) 95,74 %
28.08.2023 09:42 14,6 C 15,6 C 11,7 C 97 % 1012,8 hPa 0,0 l/m 0 min 0 min 137 W/m 6,4 km/h (2 Bft) 93,62 %
28.08.2023 09:44 14,6 C 15,6 C 11,7 C 97 % 1012,8 hPa 0,0 l/m 0 min 0 min 131 W/m 6,4 km/h (2 Bft) 91,30 %
28.08.2023 09:46 14,7 C 15,6 C 11,7 C 97 % 1012,8 hPa 0,0 l/m 0 min 0 min 126 W/m 3,2 km/h (1 Bft) 93,62 %
28.08.2023 09:48 14,8 C 15,6 C 11,7 C 97 % 1012,8 hPa 0,0 l/m 0 min 0 min 127 W/m 3,2 km/h (1 Bft) 93,62 %
28.08.2023 09:50 14,8 C 15,6 C 11,7 C 97 % 1012,8 hPa 0,0 l/m 0 min 0 min 125 W/m 3,2 km/h (1 Bft) 95,74 %
28.08.2023 09:52 14,9 C 15,6 C 11,7 C 97 % 1012,9 hPa 0,0 l/m 0 min 0 min 123 W/m 3,2 km/h (1 Bft) 95,74 %
28.08.2023 09:54 14,9 C 15,6 C 11,7 C 96 % 1012,9 hPa 0,0 l/m 0 min 0 min 117 W/m 3,2 km/h (1 Bft) 93,62 %
28.08.2023 09:56 15,0 C 15,6 C 11,7 C 96 % 1012,9 hPa 0,0 l/m 0 min 0 min 117 W/m 6,4 km/h (2 Bft) 97,83 %
28.08.2023 09:58 15,1 C 15,6 C 11,7 C 96 % 1012,8 hPa 0,0 l/m 0 min 0 min 112 W/m 3,2 km/h (1 Bft) 95,74 %
28.08.2023 10:00 15,1 C 15,6 C 11,7 C 96 % 1012,9 hPa 0,0 l/m 0 min 0 min 109 W/m 3,2 km/h (1 Bft) 91,49 %
28.08.2023 10:02 15,2 C 15,6 C 11,7 C 95 % 1012,9 hPa 0,0 l/m 0 min 0 min 121 W/m 9,7 km/h (2 Bft) 95,74 %
28.08.2023 10:04 15,2 C 15,6 C 11,7 C 95 % 1012,8 hPa 0,0 l/m 0 min 0 min 120 W/m 6,4 km/h (2 Bft) 95,92 %
28.08.2023 10:06 15,3 C 15,6 C 11,7 C 95 % 1012,8 hPa 0,0 l/m 0 min 0 min 133 W/m 6,4 km/h (2 Bft) 95,74 %
28.08.2023 10:08 15,3 C 15,6 C 11,7 C 95 % 1012,8 hPa 0,0 l/m 0 min 0 min 172 W/m 6,4 km/h (2 Bft) 94,44 %
28.08.2023 10:10 15,3 C 16,1 C 11,7 C 94 % 1012,8 hPa 0,0 l/m 0 min 0 min 141 W/m 3,2 km/h (1 Bft) 95,74 %
28.08.2023 10:12 15,4 C 16,1 C 12,2 C 94 % 1012,7 hPa 0,0 l/m 0 min 0 min 124 W/m 9,7 km/h (2 Bft) 97,87 %
28.08.2023 10:14 15,4 C 16,1 C 12,2 C 94 % 1012,7 hPa 0,0 l/m 0 min 0 min 179 W/m 3,2 km/h (1 Bft) 97,87 %
28.08.2023 10:16 15,4 C 16,1 C 12,2 C 94 % 1012,7 hPa 0,0 l/m 0 min 0 min 144 W/m 6,4 km/h (2 Bft) 97,87 %
28.08.2023 10:18 15,6 C 16,1 C 12,2 C 94 % 1012,7 hPa 0,0 l/m 0 min 0 min 141 W/m 6,4 km/h (2 Bft) 95,65 %
28.08.2023 10:20 15,6 C 16,1 C 12,2 C 94 % 1012,8 hPa 0,0 l/m 0 min 0 min 133 W/m 3,2 km/h (1 Bft) 97,87 %
28.08.2023 10:22 15,7 C 16,1 C 12,2 C 93 % 1012,8 hPa 0,0 l/m 0 min 0 min 169 W/m 3,2 km/h (1 Bft) 97,87 %
28.08.2023 10:24 15,7 C 16,7 C 12,2 C 93 % 1012,8 hPa 0,0 l/m 0 min 0 min 206 W/m 3,2 km/h (1 Bft) 97,87 %
28.08.2023 10:26 15,8 C 16,7 C 12,2 C 93 % 1012,8 hPa 0,0 l/m 0 min 0 min 224 W/m 6,4 km/h (2 Bft) 97,87 %
28.08.2023 10:28 15,8 C 17,2 C 12,2 C 93 % 1012,8 hPa 0,0 l/m 0 min 0 min 136 W/m 3,2 km/h (1 Bft) 97,87 %
28.08.2023 10:30 15,9 C 16,7 C 12,8 C 92 % 1012,7 hPa 0,0 l/m 0 min 0 min 141 W/m 3,2 km/h (1 Bft) 97,83 %
28.08.2023 10:32 15,9 C 16,7 C 12,8 C 92 % 1012,8 hPa 0,0 l/m 0 min 0 min 212 W/m 6,4 km/h (2 Bft) 95,74 %
28.08.2023 10:34 16,0 C 17,2 C 12,8 C 92 % 1012,8 hPa 0,0 l/m 2 min 0 min 328 W/m 6,4 km/h (2 Bft) 100,00 %
28.08.2023 10:36 16,1 C 16,7 C 12,8 C 92 % 1012,8 hPa 0,0 l/m 2 min 0 min 309 W/m 9,7 km/h (2 Bft) 100,00 %
28.08.2023 10:38 16,1 C 16,7 C 12,8 C 92 % 1012,8 hPa 0,0 l/m 0 min 0 min 239 W/m 3,2 km/h (1 Bft) 100,00 %
28.08.2023 10:40 16,2 C 16,7 C 12,8 C 91 % 1012,8 hPa 0,0 l/m 2 min 0 min 318 W/m 3,2 km/h (1 Bft) 100,00 %
28.08.2023 10:42 16,2 C 16,7 C 13,3 C 91 % 1012,8 hPa 0,0 l/m 0 min 0 min 207 W/m 6,4 km/h (2 Bft) 100,00 %
28.08.2023 10:44 16,3 C 16,7 C 13,3 C 91 % 1012,8 hPa 0,0 l/m 0 min 0 min 203 W/m 6,4 km/h (2 Bft) 100,00 %
28.08.2023 10:46 16,3 C 16,7 C 13,3 C 91 % 1012,8 hPa 0,0 l/m 0 min 0 min 229 W/m 3,2 km/h (1 Bft) 100,00 %
28.08.2023 10:48 16,3 C 17,2 C 13,3 C 90 % 1012,8 hPa 0,0 l/m 0 min 0 min 215 W/m 6,4 km/h (2 Bft) 100,00 %
28.08.2023 10:50 16,4 C 17,2 C 13,3 C 90 % 1012,8 hPa 0,0 l/m 0 min 0 min 231 W/m 6,4 km/h (2 Bft) 100,00 %
28.08.2023 10:52 16,4 C 17,2 C 13,3 C 90 % 1012,8 hPa 0,0 l/m 0 min 0 min 248 W/m 6,4 km/h (2 Bft) 100,00 %
28.08.2023 10:54 16,5 C 17,2 C 13,3 C 90 % 1012,8 hPa 0,0 l/m 0 min 0 min 257 W/m 6,4 km/h (2 Bft) 97,87 %
28.08.2023 10:56 16,6 C 17,8 C 13,3 C 90 % 1012,8 hPa 0,0 l/m 0 min 0 min 266 W/m 12,9 km/h (3 Bft) 100,00 %
28.08.2023 10:58 16,6 C 17,8 C 13,3 C 90 % 1012,9 hPa 0,0 l/m 0 min 0 min 283 W/m 6,4 km/h (2 Bft) 100,00 %
28.08.2023 11:00 16,7 C 17,8 C 13,3 C 89 % 1012,8 hPa 0,0 l/m 2 min 0 min 331 W/m 6,4 km/h (2 Bft) 97,87 %
28.08.2023 11:02 16,8 C 17,8 C 13,3 C 89 % 1012,8 hPa 0,0 l/m 2 min 0 min 349 W/m 3,2 km/h (1 Bft) 100,00 %
28.08.2023 11:04 16,8 C 17,8 C 13,9 C 89 % 1012,8 hPa 0,0 l/m 2 min 0 min 398 W/m 6,4 km/h (2 Bft) 100,00 %
28.08.2023 11:06 16,9 C 17,8 C 13,9 C 89 % 1012,8 hPa 0,0 l/m 2 min 0 min 321 W/m 6,4 km/h (2 Bft) 100,00 %
28.08.2023 11:08 16,9 C 17,8 C 13,9 C 88 % 1012,8 hPa 0,0 l/m 2 min 0 min 330 W/m 3,2 km/h (1 Bft) 100,00 %
28.08.2023 11:10 16,9 C 17,8 C 13,9 C 88 % 1012,9 hPa 0,0 l/m 2 min 0 min 439 W/m 3,2 km/h (1 Bft) 97,87 %
28.08.2023 11:12 16,9 C 17,8 C 13,9 C 87 % 1012,9 hPa 0,0 l/m 2 min 0 min 426 W/m 9,7 km/h (2 Bft) 100,00 %
28.08.2023 11:14 17,1 C 18,3 C 13,9 C 87 % 1012,9 hPa 0,0 l/m 2 min 0 min 456 W/m 3,2 km/h (1 Bft) 97,87 %
28.08.2023 11:16 17,1 C 17,8 C 13,9 C 87 % 1012,9 hPa 0,0 l/m 2 min 0 min 491 W/m 3,2 km/h (1 Bft) 97,87 %
28.08.2023 11:18 17,1 C 18,3 C 13,9 C 87 % 1012,9 hPa 0,0 l/m 2 min 0 min 329 W/m 9,7 km/h (2 Bft) 97,87 %
28.08.2023 11:20 17,2 C 18,9 C 13,9 C 87 % 1012,9 hPa 0,0 l/m 2 min 0 min 393 W/m 16,1 km/h (3 Bft) 100,00 %
28.08.2023 11:22 17,2 C 18,3 C 13,9 C 86 % 1013,0 hPa 0,0 l/m 2 min 0 min 383 W/m 6,4 km/h (2 Bft) 100,00 %
28.08.2023 11:24 17,2 C 17,8 C 13,9 C 86 % 1012,9 hPa 0,0 l/m 0 min 0 min 230 W/m 6,4 km/h (2 Bft) 100,00 %
28.08.2023 11:26 17,3 C 17,8 C 13,9 C 86 % 1013,0 hPa 0,0 l/m 0 min 0 min 228 W/m 3,2 km/h (1 Bft) 97,83 %
28.08.2023 11:28 17,3 C 17,8 C 13,9 C 85 % 1012,9 hPa 0,0 l/m 0 min 0 min 237 W/m 6,4 km/h (2 Bft) 100,00 %
28.08.2023 11:30 17,3 C 17,8 C 13,9 C 85 % 1012,9 hPa 0,0 l/m 0 min 0 min 268 W/m 3,2 km/h (1 Bft) 100,00 %
28.08.2023 11:32 17,3 C 17,8 C 13,9 C 86 % 1012,9 hPa 0,0 l/m 0 min 0 min 304 W/m 3,2 km/h (1 Bft) 100,00 %
28.08.2023 11:34 17,4 C 18,3 C 13,9 C 85 % 1012,9 hPa 0,0 l/m 2 min 0 min 330 W/m 3,2 km/h (1 Bft) 100,00 %
28.08.2023 11:36 17,4 C 18,3 C 13,9 C 85 % 1012,9 hPa 0,0 l/m 0 min 0 min 306 W/m 3,2 km/h (1 Bft) 100,00 %
28.08.2023 11:38 17,4 C 18,3 C 14,4 C 85 % 1012,9 hPa 0,0 l/m 0 min 0 min 303 W/m 3,2 km/h (1 Bft) 100,00 %
28.08.2023 11:40 17,5 C 18,3 C 13,9 C 85 % 1012,9 hPa 0,0 l/m 2 min 0 min 335 W/m 3,2 km/h (1 Bft) 100,00 %
28.08.2023 11:42 17,5 C 18,3 C 13,9 C 84 % 1012,9 hPa 0,0 l/m 2 min 0 min 338 W/m 6,4 km/h (2 Bft) 100,00 %
28.08.2023 11:44 17,5 C 18,3 C 14,4 C 85 % 1012,9 hPa 0,0 l/m 0 min 0 min 296 W/m 9,7 km/h (2 Bft) 95,74 %
28.08.2023 11:46 17,6 C 18,3 C 14,4 C 85 % 1012,8 hPa 0,0 l/m 0 min 0 min 272 W/m 6,4 km/h (2 Bft) 97,87 %
28.08.2023 11:48 17,6 C 18,3 C 14,4 C 84 % 1012,8 hPa 0,0 l/m 0 min 0 min 281 W/m 6,4 km/h (2 Bft) 97,87 %
28.08.2023 11:50 17,7 C 18,9 C 14,4 C 84 % 1012,8 hPa 0,0 l/m 0 min 0 min 300 W/m 3,2 km/h (1 Bft) 97,87 %
28.08.2023 11:52 17,7 C 18,9 C 14,4 C 84 % 1012,8 hPa 0,0 l/m 2 min 0 min 425 W/m 3,2 km/h (1 Bft) 97,87 %
28.08.2023 11:54 17,7 C 18,9 C 14,4 C 84 % 1012,8 hPa 0,0 l/m 2 min 0 min 405 W/m 6,4 km/h (2 Bft) 95,65 %
28.08.2023 11:56 17,8 C 19,4 C 15,0 C 84 % 1012,7 hPa 0,0 l/m 2 min 0 min 459 W/m 6,4 km/h (2 Bft) 97,87 %
28.08.2023 11:58 17,9 C 20,0 C 15,0 C 84 % 1012,7 hPa 0,0 l/m 2 min 0 min 507 W/m 6,4 km/h (2 Bft) 97,87 %
28.08.2023 12:00 17,9 C 20,6 C 15,0 C 84 % 1012,6 hPa 0,0 l/m 2 min 0 min 454 W/m 6,4 km/h (2 Bft) 97,87 %
28.08.2023 12:02 18,0 C 20,6 C 15,6 C 83 % 1012,7 hPa 0,0 l/m 2 min 0 min 383 W/m 9,7 km/h (2 Bft) 95,74 %
28.08.2023 12:04 18,0 C 20,0 C 15,0 C 82 % 1012,6 hPa 0,0 l/m 0 min 0 min 336 W/m 3,2 km/h (1 Bft) 97,62 %
28.08.2023 12:08 18,1 C 18,9 C 14,4 C 81 % 1012,6 hPa 0,0 l/m 0 min 0 min 249 W/m 6,4 km/h (2 Bft) 95,10 %
28.08.2023 12:10 18,1 C 18,9 C 14,4 C 81 % 1012,5 hPa 0,0 l/m 0 min 0 min 227 W/m 3,2 km/h (1 Bft) 96,00 %
28.08.2023 12:12 18,1 C 18,3 C 14,4 C 82 % 1012,5 hPa 0,0 l/m 0 min 0 min 247 W/m 6,4 km/h (2 Bft) 95,74 %
28.08.2023 12:14 18,1 C 18,9 C 15,0 C 82 % 1012,5 hPa 0,0 l/m 0 min 0 min 281 W/m 3,2 km/h (1 Bft) 95,74 %
28.08.2023 12:16 18,2 C 20,0 C 15,6 C 82 % 1012,5 hPa 0,0 l/m 2 min 0 min 481 W/m 3,2 km/h (1 Bft) 93,48 %
28.08.2023 12:18 18,2 C 20,0 C 15,6 C 82 % 1012,5 hPa 0,0 l/m 2 min 0 min 435 W/m 6,4 km/h (2 Bft) 95,74 %
28.08.2023 12:20 18,2 C 20,0 C 15,6 C 81 % 1012,5 hPa 0,0 l/m 0 min 0 min 308 W/m 3,2 km/h (1 Bft) 93,62 %
28.08.2023 12:22 18,2 C 19,4 C 15,0 C 80 % 1012,6 hPa 0,0 l/m 0 min 0 min 314 W/m 6,4 km/h (2 Bft) 95,74 %
28.08.2023 12:24 18,2 C 19,4 C 15,0 C 80 % 1012,5 hPa 0,0 l/m 0 min 0 min 349 W/m 0,0 km/h (0 Bft) 97,87 %
28.08.2023 12:26 18,2 C 19,4 C 15,0 C 80 % 1012,5 hPa 0,0 l/m 0 min 0 min 346 W/m 6,4 km/h (2 Bft) 97,87 %
28.08.2023 12:28 18,3 C 19,4 C 15,0 C 80 % 1012,4 hPa 0,0 l/m 0 min 0 min 289 W/m 3,2 km/h (1 Bft) 97,87 %
28.08.2023 12:30 18,3 C 18,9 C 15,0 C 80 % 1012,4 hPa 0,0 l/m 0 min 0 min 256 W/m 6,4 km/h (2 Bft) 97,83 %
28.08.2023 12:32 18,3 C 18,9 C 15,0 C 80 % 1012,4 hPa 0,0 l/m 0 min 0 min 257 W/m 6,4 km/h (2 Bft) 95,74 %
28.08.2023 12:34 18,3 C 18,9 C 15,0 C 79 % 1012,4 hPa 0,0 l/m 0 min 0 min 281 W/m 6,4 km/h (2 Bft) 95,74 %
28.08.2023 12:36 18,3 C 18,9 C 15,0 C 79 % 1012,4 hPa 0,0 l/m 0 min 0 min 298 W/m 6,4 km/h (2 Bft) 97,87 %
28.08.2023 12:38 18,3 C 18,9 C 15,0 C 79 % 1012,4 hPa 0,0 l/m 0 min 0 min 314 W/m 3,2 km/h (1 Bft) 97,87 %
28.08.2023 12:40 18,3 C 18,9 C 15,0 C 79 % 1012,4 hPa 0,0 l/m 0 min 0 min 337 W/m 3,2 km/h (1 Bft) 97,87 %
28.08.2023 12:42 18,3 C 19,4 C 14,4 C 79 % 1012,4 hPa 0,0 l/m 0 min 0 min 327 W/m 6,4 km/h (2 Bft) 97,83 %
28.08.2023 12:44 18,4 C 18,9 C 15,0 C 79 % 1012,4 hPa 0,0 l/m 0 min 0 min 309 W/m 6,4 km/h (2 Bft) 95,74 %
28.08.2023 12:46 18,4 C 18,9 C 15,0 C 78 % 1012,4 hPa 0,0 l/m 0 min 0 min 292 W/m 9,7 km/h (2 Bft) 100,00 %
28.08.2023 12:48 18,4 C 18,9 C 15,0 C 79 % 1012,4 hPa 0,0 l/m 0 min 0 min 291 W/m 9,7 km/h (2 Bft) 97,87 %
28.08.2023 12:50 18,4 C 18,9 C 15,0 C 79 % 1012,4 hPa 0,0 l/m 0 min 0 min 294 W/m 6,4 km/h (2 Bft) 97,87 %
28.08.2023 12:52 18,5 C 18,9 C 15,0 C 79 % 1012,4 hPa 0,0 l/m 0 min 0 min 312 W/m 9,7 km/h (2 Bft) 100,00 %
28.08.2023 12:54 18,6 C 18,9 C 15,0 C 79 % 1012,4 hPa 0,0 l/m 0 min 0 min 327 W/m 6,4 km/h (2 Bft) 97,87 %
28.08.2023 12:56 18,6 C 19,4 C 15,0 C 79 % 1012,4 hPa 0,0 l/m 0 min 0 min 326 W/m 9,7 km/h (2 Bft) 97,83 %
28.08.2023 12:58 18,6 C 19,4 C 15,0 C 79 % 1012,4 hPa 0,0 l/m 0 min 0 min 328 W/m 6,4 km/h (2 Bft) 95,74 %
28.08.2023 13:00 18,6 C 19,4 C 15,0 C 78 % 1012,4 hPa 0,0 l/m 0 min 0 min 341 W/m 3,2 km/h (1 Bft) 97,87 %
28.08.2023 13:02 18,6 C 19,4 C 15,0 C 78 % 1012,4 hPa 0,0 l/m 0 min 0 min 345 W/m 6,4 km/h (2 Bft) 97,87 %
28.08.2023 13:04 18,6 C 18,9 C 15,0 C 78 % 1012,3 hPa 0,0 l/m 0 min 0 min 352 W/m 6,4 km/h (2 Bft) 97,56 %
28.08.2023 13:06 18,6 C 19,4 C 15,0 C 79 % 1012,3 hPa 0,0 l/m 0 min 0 min 350 W/m 6,4 km/h (2 Bft) 96,30 %
28.08.2023 13:08 18,7 C 19,4 C 15,0 C 79 % 1012,3 hPa 0,0 l/m 0 min 0 min 350 W/m 6,4 km/h (2 Bft) 97,83 %
28.08.2023 13:10 18,7 C 19,4 C 15,0 C 79 % 1012,3 hPa 0,0 l/m 0 min 0 min 361 W/m 6,4 km/h (2 Bft) 97,87 %
28.08.2023 13:12 18,7 C 19,4 C 15,0 C 79 % 1012,3 hPa 0,0 l/m 2 min 0 min 378 W/m 6,4 km/h (2 Bft) 97,87 %
28.08.2023 13:14 18,7 C 19,4 C 15,0 C 79 % 1012,3 hPa 0,0 l/m 2 min 0 min 388 W/m 9,7 km/h (2 Bft) 95,74 %
28.08.2023 13:16 18,7 C 19,4 C 15,6 C 79 % 1012,3 hPa 0,0 l/m 2 min 0 min 393 W/m 6,4 km/h (2 Bft) 95,74 %
28.08.2023 13:18 18,8 C 20,0 C 15,6 C 79 % 1012,4 hPa 0,0 l/m 2 min 0 min 399 W/m 6,4 km/h (2 Bft) 97,87 %
28.08.2023 13:20 18,8 C 20,0 C 15,6 C 79 % 1012,4 hPa 0,0 l/m 2 min 0 min 429 W/m 9,7 km/h (2 Bft) 97,83 %
28.08.2023 13:22 18,9 C 20,0 C 15,6 C 79 % 1012,4 hPa 0,0 l/m 2 min 0 min 420 W/m 9,7 km/h (2 Bft) 97,87 %
28.08.2023 13:24 18,9 C 20,0 C 15,6 C 78 % 1012,4 hPa 0,0 l/m 2 min 0 min 397 W/m 9,7 km/h (2 Bft) 97,87 %
28.08.2023 13:26 18,9 C 20,0 C 15,6 C 78 % 1012,4 hPa 0,0 l/m 2 min 0 min 418 W/m 6,4 km/h (2 Bft) 97,87 %
28.08.2023 13:28 18,9 C 20,0 C 15,6 C 77 % 1012,4 hPa 0,0 l/m 2 min 0 min 400 W/m 6,4 km/h (2 Bft) 97,87 %
28.08.2023 13:30 19,0 C 20,0 C 15,6 C 77 % 1012,4 hPa 0,0 l/m 2 min 0 min 485 W/m 6,4 km/h (2 Bft) 97,87 %
28.08.2023 13:32 19,1 C 20,0 C 15,6 C 78 % 1012,4 hPa 0,0 l/m 2 min 0 min 475 W/m 12,9 km/h (3 Bft) 97,87 %
28.08.2023 13:34 19,1 C 20,0 C 15,6 C 78 % 1012,4 hPa 0,0 l/m 2 min 0 min 419 W/m 6,4 km/h (2 Bft) 93,48 %
28.08.2023 13:36 19,1 C 20,0 C 15,6 C 76 % 1012,5 hPa 0,0 l/m 2 min 0 min 535 W/m 3,2 km/h (1 Bft) 97,87 %
28.08.2023 13:38 19,2 C 20,0 C 15,6 C 77 % 1012,6 hPa 0,0 l/m 2 min 0 min 628 W/m 6,4 km/h (2 Bft) 97,87 %
28.08.2023 13:40 19,2 C 20,0 C 15,6 C 77 % 1012,6 hPa 0,0 l/m 2 min 0 min 617 W/m 12,9 km/h (3 Bft) 97,87 %
28.08.2023 13:42 19,3 C 20,6 C 15,6 C 77 % 1012,5 hPa 0,0 l/m 2 min 0 min 599 W/m 9,7 km/h (2 Bft) 95,74 %
28.08.2023 13:44 19,3 C 20,0 C 15,6 C 76 % 1012,6 hPa 0,0 l/m 2 min 0 min 388 W/m 6,4 km/h (2 Bft) 97,87 %
28.08.2023 13:46 19,3 C 20,0 C 15,6 C 75 % 1012,6 hPa 0,0 l/m 2 min 0 min 379 W/m 9,7 km/h (2 Bft) 97,87 %
28.08.2023 13:48 19,3 C 20,0 C 15,6 C 76 % 1012,5 hPa 0,0 l/m 2 min 0 min 407 W/m 12,9 km/h (3 Bft) 97,83 %
28.08.2023 13:50 19,3 C 20,0 C 15,6 C 75 % 1012,5 hPa 0,0 l/m 0 min 0 min 310 W/m 9,7 km/h (2 Bft) 97,87 %
28.08.2023 13:52 19,3 C 20,0 C 15,6 C 76 % 1012,6 hPa 0,0 l/m 0 min 0 min 297 W/m 3,2 km/h (1 Bft) 94,29 %
28.08.2023 13:54 19,3 C 20,0 C 15,6 C 75 % 1012,7 hPa 0,0 l/m 0 min 0 min 291 W/m 3,2 km/h (1 Bft) 98,08 %
28.08.2023 13:56 19,3 C 19,4 C 15,6 C 74 % 1012,7 hPa 0,0 l/m 0 min 0 min 304 W/m 6,4 km/h (2 Bft) 97,87 %
28.08.2023 13:58 19,3 C 19,4 C 15,6 C 74 % 1012,7 hPa 0,0 l/m 0 min 0 min 307 W/m 3,2 km/h (1 Bft) 100,00 %
28.08.2023 14:00 19,2 C 19,4 C 15,6 C 73 % 1012,8 hPa 0,0 l/m 0 min 0 min 333 W/m 3,2 km/h (1 Bft) 100,00 %
28.08.2023 14:02 19,2 C 20,6 C 15,6 C 73 % 1012,8 hPa 0,0 l/m 2 min 0 min 451 W/m 3,2 km/h (1 Bft) 100,00 %
28.08.2023 14:04 19,3 C 21,7 C 15,6 C 73 % 1012,7 hPa 0,0 l/m 2 min 0 min 583 W/m 3,2 km/h (1 Bft) 98,00 %
28.08.2023 14:06 19,4 C 22,8 C 15,6 C 74 % 1012,7 hPa 0,0 l/m 2 min 0 min 535 W/m 6,4 km/h (2 Bft) 97,92 %
28.08.2023 14:08 19,5 C 23,3 C 16,1 C 74 % 1012,7 hPa 0,0 l/m 2 min 0 min 635 W/m 6,4 km/h (2 Bft) 97,87 %
28.08.2023 14:10 19,6 C 23,3 C 16,1 C 72 % 1012,7 hPa 0,0 l/m 2 min 0 min 731 W/m 6,4 km/h (2 Bft) 95,74 %
28.08.2023 14:12 19,6 C 23,3 C 16,1 C 71 % 1012,7 hPa 0,0 l/m 2 min 0 min 499 W/m 3,2 km/h (1 Bft) 97,87 %
28.08.2023 14:14 19,6 C 22,2 C 15,6 C 69 % 1012,7 hPa 0,0 l/m 2 min 0 min 472 W/m 6,4 km/h (2 Bft) 97,83 %
28.08.2023 14:16 19,6 C 22,8 C 16,1 C 69 % 1012,6 hPa 0,0 l/m 2 min 0 min 534 W/m 3,2 km/h (1 Bft) 97,87 %
28.08.2023 14:18 19,7 C 23,3 C 16,1 C 69 % 1012,6 hPa 0,0 l/m 2 min 0 min 554 W/m 6,4 km/h (2 Bft) 95,74 %
28.08.2023 14:20 19,8 C 23,3 C 16,1 C 71 % 1012,6 hPa 0,0 l/m 2 min 0 min 516 W/m 9,7 km/h (2 Bft) 95,74 %
28.08.2023 14:22 19,9 C 22,8 C 16,1 C 71 % 1012,6 hPa 0,0 l/m 2 min 0 min 431 W/m 6,4 km/h (2 Bft) 95,74 %
28.08.2023 14:24 20,0 C 22,8 C 16,1 C 71 % 1012,6 hPa 0,0 l/m 2 min 0 min 381 W/m 6,4 km/h (2 Bft) 95,74 %
28.08.2023 14:26 20,1 C 22,2 C 16,1 C 70 % 1012,6 hPa 0,0 l/m 0 min 0 min 325 W/m 6,4 km/h (2 Bft) 95,74 %
28.08.2023 14:28 20,1 C 21,7 C 16,1 C 71 % 1012,5 hPa 0,0 l/m 0 min 0 min 322 W/m 6,4 km/h (2 Bft) 95,65 %
28.08.2023 14:30 20,1 C 21,1 C 16,1 C 71 % 1012,6 hPa 0,0 l/m 0 min 0 min 330 W/m 6,4 km/h (2 Bft) 95,74 %
28.08.2023 14:32 20,1 C 20,6 C 16,1 C 71 % 1012,5 hPa 0,0 l/m 0 min 0 min 323 W/m 6,4 km/h (2 Bft) 95,74 %
28.08.2023 14:34 20,1 C 20,6 C 16,1 C 69 % 1012,6 hPa 0,0 l/m 0 min 0 min 309 W/m 6,4 km/h (2 Bft) 93,62 %
28.08.2023 14:36 20,1 C 20,6 C 15,6 C 71 % 1012,6 hPa 0,0 l/m 0 min 0 min 296 W/m 3,2 km/h (1 Bft) 91,49 %
28.08.2023 14:38 20,1 C 20,6 C 15,6 C 72 % 1012,6 hPa 0,0 l/m 0 min 0 min 287 W/m 6,4 km/h (2 Bft) 93,62 %
28.08.2023 14:40 20,1 C 20,6 C 16,1 C 72 % 1012,6 hPa 0,0 l/m 0 min 0 min 305 W/m 9,7 km/h (2 Bft) 95,65 %
28.08.2023 14:42 20,2 C 20,6 C 16,1 C 72 % 1012,5 hPa 0,0 l/m 0 min 0 min 324 W/m 3,2 km/h (1 Bft) 93,62 %
28.08.2023 14:44 20,2 C 20,6 C 16,1 C 72 % 1012,5 hPa 0,0 l/m 0 min 0 min 330 W/m 3,2 km/h (1 Bft) 93,62 %
28.08.2023 14:46 20,2 C 20,6 C 16,1 C 72 % 1012,5 hPa 0,0 l/m 0 min 0 min 330 W/m 3,2 km/h (1 Bft) 95,74 %
28.08.2023 14:48 20,2 C 20,6 C 16,1 C 72 % 1012,5 hPa 0,0 l/m 2 min 0 min 350 W/m 3,2 km/h (1 Bft) 97,87 %
28.08.2023 14:50 20,2 C 21,7 C 16,1 C 73 % 1012,5 hPa 0,0 l/m 2 min 0 min 400 W/m 3,2 km/h (1 Bft) 95,74 %
28.08.2023 14:52 20,2 C 21,7 C 16,1 C 72 % 1012,5 hPa 0,0 l/m 2 min 0 min 542 W/m 6,4 km/h (2 Bft) 97,87 %
28.08.2023 14:54 20,2 C 21,7 C 16,7 C 72 % 1012,4 hPa 0,0 l/m 2 min 0 min 489 W/m 9,7 km/h (2 Bft) 95,65 %
28.08.2023 14:56 20,3 C 22,2 C 16,7 C 73 % 1012,5 hPa 0,0 l/m 2 min 0 min 479 W/m 6,4 km/h (2 Bft) 97,87 %
28.08.2023 14:58 20,3 C 22,2 C 16,7 C 73 % 1012,5 hPa 0,0 l/m 2 min 0 min 528 W/m 6,4 km/h (2 Bft) 100,00 %
28.08.2023 15:00 20,3 C 22,2 C 16,7 C 71 % 1012,5 hPa 0,0 l/m 2 min 0 min 514 W/m 6,4 km/h (2 Bft) 100,00 %
28.08.2023 15:02 20,3 C 22,2 C 16,7 C 71 % 1012,4 hPa 0,0 l/m 2 min 0 min 515 W/m 3,2 km/h (1 Bft) 100,00 %
28.08.2023 15:04 20,3 C 22,2 C 16,7 C 72 % 1012,4 hPa 0,0 l/m 2 min 0 min 449 W/m 6,4 km/h (2 Bft) 100,00 %
28.08.2023 15:06 20,4 C 21,7 C 16,7 C 71 % 1012,5 hPa 0,0 l/m 2 min 0 min 364 W/m 9,7 km/h (2 Bft) 100,00 %
28.08.2023 15:08 20,4 C 21,1 C 16,7 C 71 % 1012,5 hPa 0,0 l/m 0 min 0 min 337 W/m 6,4 km/h (2 Bft) 100,00 %
28.08.2023 15:10 20,4 C 21,1 C 16,1 C 70 % 1012,4 hPa 0,0 l/m 2 min 0 min 358 W/m 6,4 km/h (2 Bft) 100,00 %
28.08.2023 15:12 20,4 C 20,6 C 16,1 C 70 % 1012,5 hPa 0,0 l/m 2 min 0 min 356 W/m 12,9 km/h (3 Bft) 100,00 %
28.08.2023 15:14 20,3 C 20,6 C 16,1 C 69 % 1012,4 hPa 0,0 l/m 2 min 0 min 348 W/m 3,2 km/h (1 Bft) 100,00 %
28.08.2023 15:16 20,4 C 20,6 C 16,1 C 70 % 1012,4 hPa 0,0 l/m 2 min 0 min 358 W/m 9,7 km/h (2 Bft) 100,00 %
28.08.2023 15:18 20,4 C 21,1 C 16,1 C 70 % 1012,4 hPa 0,0 l/m 2 min 0 min 407 W/m 3,2 km/h (1 Bft) 97,87 %
28.08.2023 15:20 20,4 C 21,1 C 16,1 C 70 % 1012,3 hPa 0,0 l/m 2 min 0 min 359 W/m 6,4 km/h (2 Bft) 100,00 %
28.08.2023 15:22 20,4 C 21,1 C 16,1 C 69 % 1012,3 hPa 0,0 l/m 2 min 0 min 340 W/m 3,2 km/h (1 Bft) 100,00 %
28.08.2023 15:24 20,5 C 21,1 C 16,1 C 69 % 1012,3 hPa 0,0 l/m 0 min 0 min 328 W/m 3,2 km/h (1 Bft) 100,00 %
28.08.2023 15:26 20,5 C 21,1 C 16,1 C 69 % 1012,2 hPa 0,0 l/m 0 min 0 min 316 W/m 3,2 km/h (1 Bft) 97,87 %
28.08.2023 15:28 20,6 C 21,1 C 16,1 C 70 % 1012,2 hPa 0,0 l/m 0 min 0 min 309 W/m 6,4 km/h (2 Bft) 100,00 %
28.08.2023 15:30 20,6 C 21,1 C 16,7 C 70 % 1012,2 hPa 0,0 l/m 0 min 0 min 311 W/m 12,9 km/h (3 Bft) 100,00 %
28.08.2023 15:32 20,6 C 21,1 C 16,7 C 70 % 1012,2 hPa 0,0 l/m 0 min 0 min 306 W/m 3,2 km/h (1 Bft) 100,00 %
28.08.2023 15:34 20,6 C 21,1 C 16,7 C 71 % 1012,2 hPa 0,0 l/m 0 min 0 min 299 W/m 6,4 km/h (2 Bft) 100,00 %
28.08.2023 15:36 20,6 C 21,1 C 16,7 C 70 % 1012,3 hPa 0,0 l/m 0 min 0 min 286 W/m 3,2 km/h (1 Bft) 100,00 %
28.08.2023 15:38 20,6 C 20,6 C 16,7 C 69 % 1012,3 hPa 0,0 l/m 0 min 0 min 275 W/m 6,4 km/h (2 Bft) 100,00 %
28.08.2023 15:40 20,6 C 20,6 C 16,1 C 69 % 1012,3 hPa 0,0 l/m 0 min 0 min 273 W/m 3,2 km/h (1 Bft) 100,00 %
28.08.2023 15:42 20,6 C 20,6 C 16,1 C 70 % 1012,3 hPa 0,0 l/m 0 min 0 min 286 W/m 3,2 km/h (1 Bft) 97,14 %
28.08.2023 15:44 20,5 C 20,6 C 16,1 C 70 % 1012,3 hPa 0,0 l/m 0 min 0 min 297 W/m 9,7 km/h (2 Bft) 100,00 %
28.08.2023 15:46 20,5 C 20,6 C 16,1 C 70 % 1012,3 hPa 0,0 l/m 0 min 0 min 294 W/m 12,9 km/h (3 Bft) 100,00 %
28.08.2023 15:48 20,5 C 20,6 C 16,1 C 70 % 1012,3 hPa 0,0 l/m 0 min 0 min 304 W/m 9,7 km/h (2 Bft) 97,87 %
28.08.2023 15:50 20,5 C 20,6 C 16,1 C 70 % 1012,3 hPa 0,0 l/m 0 min 0 min 295 W/m 9,7 km/h (2 Bft) 100,00 %
28.08.2023 15:52 20,4 C 20,6 C 16,1 C 70 % 1012,3 hPa 0,0 l/m 0 min 0 min 297 W/m 6,4 km/h (2 Bft) 100,00 %
28.08.2023 15:54 20,4 C 20,6 C 16,1 C 71 % 1012,3 hPa 0,0 l/m 0 min 0 min 274 W/m 6,4 km/h (2 Bft) 100,00 %
28.08.2023 15:56 20,4 C 20,6 C 16,1 C 70 % 1012,3 hPa 0,0 l/m 0 min 0 min 257 W/m 6,4 km/h (2 Bft) 100,00 %
28.08.2023 15:58 20,4 C 20,6 C 16,1 C 70 % 1012,3 hPa 0,0 l/m 0 min 0 min 248 W/m 3,2 km/h (1 Bft) 100,00 %
28.08.2023 16:00 20,4 C 20,6 C 16,1 C 71 % 1012,3 hPa 0,0 l/m 0 min 0 min 243 W/m 6,4 km/h (2 Bft) 100,00 %
28.08.2023 16:02 20,3 C 20,0 C 16,1 C 70 % 1012,3 hPa 0,0 l/m 0 min 0 min 244 W/m 6,4 km/h (2 Bft) 100,00 %
28.08.2023 16:04 20,3 C 20,0 C 16,1 C 70 % 1012,3 hPa 0,0 l/m 0 min 0 min 244 W/m 6,4 km/h (2 Bft) 100,00 %
28.08.2023 16:06 20,3 C 20,0 C 16,1 C 71 % 1012,3 hPa 0,0 l/m 0 min 0 min 234 W/m 3,2 km/h (1 Bft) 100,00 %
28.08.2023 16:08 20,2 C 20,0 C 16,1 C 71 % 1012,3 hPa 0,0 l/m 0 min 0 min 222 W/m 6,4 km/h (2 Bft) 97,87 %
28.08.2023 16:10 20,2 C 20,0 C 16,1 C 70 % 1012,3 hPa 0,0 l/m 0 min 0 min 215 W/m 6,4 km/h (2 Bft) 100,00 %
28.08.2023 16:12 20,1 C 20,0 C 16,1 C 70 % 1012,3 hPa 0,0 l/m 0 min 0 min 210 W/m 6,4 km/h (2 Bft) 100,00 %
28.08.2023 16:14 20,1 C 20,0 C 16,1 C 72 % 1012,3 hPa 0,0 l/m 0 min 0 min 204 W/m 9,7 km/h (2 Bft) 100,00 %
28.08.2023 16:16 20,1 C 20,0 C 16,1 C 72 % 1012,2 hPa 0,0 l/m 0 min 0 min 197 W/m 9,7 km/h (2 Bft) 100,00 %
28.08.2023 16:18 20,1 C 20,0 C 16,1 C 73 % 1012,2 hPa 0,0 l/m 0 min 0 min 192 W/m 6,4 km/h (2 Bft) 97,87 %
28.08.2023 16:20 20,1 C 20,0 C 16,1 C 74 % 1012,3 hPa 0,0 l/m 0 min 0 min 185 W/m 6,4 km/h (2 Bft) 100,00 %
28.08.2023 16:22 20,1 C 19,4 C 15,6 C 74 % 1012,2 hPa 0,0 l/m 0 min 0 min 179 W/m 6,4 km/h (2 Bft) 100,00 %
28.08.2023 16:24 20,1 C 19,4 C 15,6 C 75 % 1012,3 hPa 0,0 l/m 0 min 0 min 173 W/m 16,1 km/h (3 Bft) 97,87 %
28.08.2023 16:26 20,1 C 19,4 C 15,6 C 75 % 1012,3 hPa 0,0 l/m 0 min 0 min 171 W/m 9,7 km/h (2 Bft) 95,65 %
28.08.2023 16:28 20,1 C 19,4 C 15,6 C 75 % 1012,4 hPa 0,0 l/m 0 min 0 min 171 W/m 6,4 km/h (2 Bft) 97,92 %
28.08.2023 16:30 20,0 C 19,4 C 15,6 C 75 % 1012,3 hPa 0,0 l/m 0 min 0 min 172 W/m 3,2 km/h (1 Bft) 95,74 %
28.08.2023 16:32 20,0 C 19,4 C 15,6 C 75 % 1012,4 hPa 0,0 l/m 0 min 0 min 173 W/m 6,4 km/h (2 Bft) 91,49 %
28.08.2023 16:34 19,9 C 19,4 C 15,6 C 76 % 1012,4 hPa 0,0 l/m 0 min 0 min 178 W/m 6,4 km/h (2 Bft) 93,62 %
28.08.2023 16:36 19,9 C 19,4 C 15,6 C 76 % 1012,4 hPa 0,0 l/m 0 min 0 min 181 W/m 12,9 km/h (3 Bft) 93,62 %
28.08.2023 16:38 19,9 C 19,4 C 15,6 C 76 % 1012,4 hPa 0,0 l/m 0 min 0 min 184 W/m 9,7 km/h (2 Bft) 91,49 %
28.08.2023 16:40 19,8 C 19,4 C 15,6 C 76 % 1012,4 hPa 0,0 l/m 0 min 0 min 184 W/m 6,4 km/h (2 Bft) 93,48 %
28.08.2023 16:42 19,8 C 19,4 C 15,6 C 76 % 1012,3 hPa 0,0 l/m 0 min 0 min 184 W/m 6,4 km/h (2 Bft) 91,49 %
28.08.2023 16:44 19,8 C 19,4 C 15,6 C 77 % 1012,3 hPa 0,0 l/m 0 min 0 min 185 W/m 0,0 km/h (0 Bft) 93,62 %
28.08.2023 16:46 19,8 C 19,4 C 15,6 C 77 % 1012,3 hPa 0,0 l/m 0 min 0 min 186 W/m 0,0 km/h (0 Bft) 89,36 %
28.08.2023 16:48 19,8 C 19,4 C 15,6 C 77 % 1012,3 hPa 0,0 l/m 0 min 0 min 186 W/m 0,0 km/h (0 Bft) 91,49 %
28.08.2023 16:50 19,8 C 19,4 C 15,6 C 77 % 1012,3 hPa 0,0 l/m 0 min 0 min 185 W/m 3,2 km/h (1 Bft) 93,62 %
28.08.2023 16:52 19,7 C 19,4 C 15,6 C 77 % 1012,4 hPa 0,0 l/m 0 min 0 min 182 W/m 3,2 km/h (1 Bft) 91,30 %
28.08.2023 16:54 19,7 C 19,4 C 15,6 C 77 % 1012,4 hPa 0,0 l/m 0 min 0 min 178 W/m 0,0 km/h (0 Bft) 89,36 %
28.08.2023 16:56 19,7 C 19,4 C 15,6 C 77 % 1012,4 hPa 0,0 l/m 0 min 0 min 176 W/m 0,0 km/h (0 Bft) 95,74 %
28.08.2023 16:58 19,7 C 19,4 C 15,6 C 77 % 1012,4 hPa 0,0 l/m 0 min 0 min 176 W/m 0,0 km/h (0 Bft) 93,62 %
28.08.2023 17:00 19,7 C 19,4 C 15,6 C 77 % 1012,4 hPa 0,0 l/m 0 min 0 min 176 W/m 3,2 km/h (1 Bft) 93,62 %
28.08.2023 17:02 19,7 C 19,4 C 15,6 C 77 % 1012,4 hPa 0,0 l/m 0 min 0 min 174 W/m 0,0 km/h (0 Bft) 93,62 %
28.08.2023 17:04 19,6 C 19,4 C 15,6 C 77 % 1012,4 hPa 0,0 l/m 0 min 0 min 174 W/m 9,7 km/h (2 Bft) 95,92 %
28.08.2023 17:06 19,6 C 19,4 C 15,6 C 76 % 1012,5 hPa 0,0 l/m 0 min 0 min 174 W/m 6,4 km/h (2 Bft) 95,83 %
28.08.2023 17:08 19,6 C 19,4 C 15,6 C 76 % 1012,5 hPa 0,0 l/m 0 min 0 min 173 W/m 6,4 km/h (2 Bft) 95,74 %
28.08.2023 17:10 19,6 C 19,4 C 15,6 C 77 % 1012,5 hPa 0,0 l/m 0 min 0 min 171 W/m 6,4 km/h (2 Bft) 91,43 %
28.08.2023 17:12 19,6 C 19,4 C 15,6 C 77 % 1012,5 hPa 0,0 l/m 0 min 0 min 168 W/m 9,7 km/h (2 Bft) 95,74 %
28.08.2023 17:14 19,6 C 19,4 C 15,6 C 77 % 1012,5 hPa 0,0 l/m 0 min 0 min 165 W/m 6,4 km/h (2 Bft) 95,74 %
28.08.2023 17:16 19,6 C 18,9 C 15,0 C 77 % 1012,5 hPa 0,0 l/m 0 min 0 min 163 W/m 6,4 km/h (2 Bft) 97,87 %
28.08.2023 17:18 19,6 C 18,9 C 15,6 C 77 % 1012,5 hPa 0,0 l/m 0 min 0 min 162 W/m 6,4 km/h (2 Bft) 97,87 %
28.08.2023 17:20 19,6 C 18,9 C 15,6 C 78 % 1012,5 hPa 0,0 l/m 0 min 0 min 162 W/m 6,4 km/h (2 Bft) 97,83 %
28.08.2023 17:22 19,5 C 18,9 C 15,0 C 78 % 1012,5 hPa 0,0 l/m 0 min 0 min 164 W/m 12,9 km/h (3 Bft) 100,00 %
28.08.2023 17:24 19,5 C 18,9 C 15,0 C 77 % 1012,5 hPa 0,0 l/m 0 min 0 min 167 W/m 12,9 km/h (3 Bft) 100,00 %
28.08.2023 17:26 19,4 C 18,9 C 15,0 C 77 % 1012,5 hPa 0,0 l/m 0 min 0 min 173 W/m 3,2 km/h (1 Bft) 100,00 %
28.08.2023 17:28 19,4 C 18,9 C 15,0 C 77 % 1012,5 hPa 0,0 l/m 0 min 0 min 175 W/m 9,7 km/h (2 Bft) 97,87 %
28.08.2023 17:30 19,4 C 18,9 C 15,0 C 77 % 1012,5 hPa 0,0 l/m 0 min 0 min 178 W/m 16,1 km/h (3 Bft) 100,00 %
28.08.2023 17:32 19,4 C 18,9 C 15,0 C 77 % 1012,5 hPa 0,0 l/m 0 min 0 min 178 W/m 9,7 km/h (2 Bft) 97,87 %
28.08.2023 17:34 19,4 C 18,9 C 15,0 C 76 % 1012,5 hPa 0,0 l/m 0 min 0 min 177 W/m 9,7 km/h (2 Bft) 100,00 %
28.08.2023 17:36 19,4 C 18,9 C 15,0 C 77 % 1012,5 hPa 0,0 l/m 0 min 0 min 178 W/m 9,7 km/h (2 Bft) 100,00 %
28.08.2023 17:38 19,4 C 18,9 C 15,0 C 77 % 1012,5 hPa 0,0 l/m 0 min 0 min 178 W/m 6,4 km/h (2 Bft) 100,00 %
28.08.2023 17:40 19,4 C 18,9 C 15,0 C 77 % 1012,5 hPa 0,0 l/m 0 min 0 min 177 W/m 9,7 km/h (2 Bft) 100,00 %
28.08.2023 17:42 19,4 C 18,9 C 15,0 C 77 % 1012,5 hPa 0,0 l/m 0 min 0 min 177 W/m 6,4 km/h (2 Bft) 97,87 %
28.08.2023 17:44 19,3 C 18,9 C 15,0 C 77 % 1012,5 hPa 0,0 l/m 0 min 0 min 179 W/m 6,4 km/h (2 Bft) 100,00 %
28.08.2023 17:46 19,3 C 18,9 C 15,0 C 77 % 1012,6 hPa 0,0 l/m 0 min 0 min 183 W/m 6,4 km/h (2 Bft) 97,83 %
28.08.2023 17:48 19,3 C 18,9 C 15,0 C 77 % 1012,5 hPa 0,0 l/m 0 min 0 min 185 W/m 6,4 km/h (2 Bft) 100,00 %
28.08.2023 17:50 19,3 C 19,4 C 15,0 C 77 % 1012,6 hPa 0,0 l/m 0 min 0 min 186 W/m 9,7 km/h (2 Bft) 97,87 %
28.08.2023 17:52 19,3 C 19,4 C 15,0 C 77 % 1012,6 hPa 0,0 l/m 0 min 0 min 187 W/m 9,7 km/h (2 Bft) 100,00 %
28.08.2023 17:54 19,3 C 19,4 C 15,0 C 77 % 1012,5 hPa 0,0 l/m 0 min 0 min 183 W/m 6,4 km/h (2 Bft) 100,00 %
28.08.2023 17:56 19,4 C 19,4 C 15,6 C 77 % 1012,5 hPa 0,0 l/m 0 min 0 min 177 W/m 6,4 km/h (2 Bft) 100,00 %
28.08.2023 17:58 19,4 C 19,4 C 15,6 C 77 % 1012,5 hPa 0,0 l/m 0 min 0 min 173 W/m 9,7 km/h (2 Bft) 100,00 %
28.08.2023 18:00 19,4 C 19,4 C 15,6 C 76 % 1012,6 hPa 0,0 l/m 0 min 0 min 170 W/m 6,4 km/h (2 Bft) 100,00 %
28.08.2023 18:02 19,3 C 18,9 C 15,0 C 75 % 1012,6 hPa 0,0 l/m 0 min 0 min 168 W/m 9,7 km/h (2 Bft) 100,00 %
28.08.2023 18:04 19,3 C 18,9 C 15,0 C 75 % 1012,5 hPa 0,0 l/m 0 min 0 min 166 W/m 0,0 km/h (0 Bft) 100,00 %
28.08.2023 18:08 19,3 C 18,9 C 15,0 C 76 % 1012,5 hPa 0,0 l/m 0 min 0 min 160 W/m 9,7 km/h (2 Bft) 98,98 %
28.08.2023 18:10 19,4 C 18,9 C 15,0 C 76 % 1012,4 hPa 0,0 l/m 0 min 0 min 155 W/m 3,2 km/h (1 Bft) 97,87 %
28.08.2023 18:12 19,4 C 18,9 C 15,0 C 77 % 1012,4 hPa 0,0 l/m 0 min 0 min 153 W/m 6,4 km/h (2 Bft) 100,00 %
28.08.2023 18:14 19,3 C 18,9 C 15,0 C 76 % 1012,4 hPa 0,0 l/m 0 min 0 min 148 W/m 6,4 km/h (2 Bft) 100,00 %
28.08.2023 18:16 19,3 C 18,9 C 15,0 C 76 % 1012,4 hPa 0,0 l/m 0 min 0 min 144 W/m 6,4 km/h (2 Bft) 100,00 %
28.08.2023 18:18 19,3 C 18,9 C 15,0 C 76 % 1012,4 hPa 0,0 l/m 0 min 0 min 140 W/m 3,2 km/h (1 Bft) 100,00 %
28.08.2023 18:20 19,3 C 18,9 C 15,0 C 76 % 1012,5 hPa 0,0 l/m 0 min 0 min 136 W/m 6,4 km/h (2 Bft) 100,00 %
28.08.2023 18:22 19,3 C 18,9 C 15,0 C 76 % 1012,5 hPa 0,0 l/m 0 min 0 min 134 W/m 3,2 km/h (1 Bft) 97,87 %
28.08.2023 18:24 19,3 C 18,9 C 15,0 C 75 % 1012,5 hPa 0,0 l/m 0 min 0 min 134 W/m 3,2 km/h (1 Bft) 97,83 %
28.08.2023 18:26 19,3 C 18,9 C 15,0 C 75 % 1012,5 hPa 0,0 l/m 0 min 0 min 132 W/m 3,2 km/h (1 Bft) 100,00 %
28.08.2023 18:28 19,3 C 18,9 C 15,0 C 75 % 1012,5 hPa 0,0 l/m 0 min 0 min 129 W/m 6,4 km/h (2 Bft) 100,00 %
28.08.2023 18:30 19,3 C 18,9 C 15,0 C 75 % 1012,5 hPa 0,0 l/m 0 min 0 min 129 W/m 3,2 km/h (1 Bft) 100,00 %
28.08.2023 18:32 19,3 C 19,4 C 15,0 C 76 % 1012,6 hPa 0,0 l/m 0 min 0 min 126 W/m 3,2 km/h (1 Bft) 100,00 %
28.08.2023 18:34 19,3 C 19,4 C 15,0 C 76 % 1012,6 hPa 0,0 l/m 0 min 0 min 121 W/m 0,0 km/h (0 Bft) 97,87 %
28.08.2023 18:36 19,3 C 18,9 C 15,0 C 76 % 1012,6 hPa 0,0 l/m 0 min 0 min 120 W/m 3,2 km/h (1 Bft) 95,74 %
28.08.2023 18:38 19,3 C 18,9 C 15,0 C 75 % 1012,6 hPa 0,0 l/m 0 min 0 min 116 W/m 3,2 km/h (1 Bft) 97,83 %
28.08.2023 18:40 19,3 C 18,9 C 15,0 C 75 % 1012,5 hPa 0,0 l/m 0 min 0 min 115 W/m 6,4 km/h (2 Bft) 95,74 %
28.08.2023 18:42 19,3 C 18,9 C 15,0 C 76 % 1012,5 hPa 0,0 l/m 0 min 0 min 111 W/m 6,4 km/h (2 Bft) 97,87 %
28.08.2023 18:44 19,3 C 18,9 C 15,0 C 76 % 1012,5 hPa 0,0 l/m 0 min 0 min 107 W/m 6,4 km/h (2 Bft) 97,87 %
28.08.2023 18:46 19,2 C 18,9 C 15,0 C 76 % 1012,6 hPa 0,0 l/m 0 min 0 min 103 W/m 6,4 km/h (2 Bft) 95,74 %
28.08.2023 18:48 19,2 C 18,9 C 15,0 C 75 % 1012,5 hPa 0,0 l/m 0 min 0 min 98 W/m 3,2 km/h (1 Bft) 97,87 %
28.08.2023 18:50 19,2 C 18,9 C 15,0 C 76 % 1012,6 hPa 0,0 l/m 0 min 0 min 93 W/m 3,2 km/h (1 Bft) 100,00 %
28.08.2023 18:52 19,2 C 18,9 C 14,4 C 77 % 1012,7 hPa 0,0 l/m 0 min 0 min 90 W/m 3,2 km/h (1 Bft) 97,83 %
28.08.2023 18:54 19,2 C 18,3 C 14,4 C 77 % 1012,6 hPa 0,0 l/m 0 min 0 min 85 W/m 6,4 km/h (2 Bft) 97,87 %
28.08.2023 18:56 19,2 C 18,3 C 14,4 C 77 % 1012,6 hPa 0,0 l/m 0 min 0 min 81 W/m 3,2 km/h (1 Bft) 97,87 %
28.08.2023 18:58 19,2 C 18,3 C 14,4 C 77 % 1012,6 hPa 0,0 l/m 0 min 0 min 77 W/m 6,4 km/h (2 Bft) 97,87 %
28.08.2023 19:00 19,2 C 18,3 C 14,4 C 77 % 1012,7 hPa 0,0 l/m 0 min 0 min 74 W/m 6,4 km/h (2 Bft) 95,74 %
28.08.2023 19:02 19,1 C 18,3 C 14,4 C 78 % 1012,6 hPa 0,0 l/m 0 min 0 min 69 W/m 6,4 km/h (2 Bft) 97,92 %
28.08.2023 19:04 19,1 C 18,3 C 14,4 C 78 % 1012,7 hPa 0,0 l/m 0 min 0 min 65 W/m 6,4 km/h (2 Bft) 95,83 %
28.08.2023 19:06 19,1 C 18,3 C 14,4 C 78 % 1012,7 hPa 0,0 l/m 0 min 0 min 60 W/m 3,2 km/h (1 Bft) 95,74 %
28.08.2023 19:08 19,1 C 18,3 C 14,4 C 78 % 1012,6 hPa 0,0 l/m 0 min 0 min 55 W/m 3,2 km/h (1 Bft) 94,29 %
28.08.2023 19:10 19,0 C 18,3 C 14,4 C 79 % 1012,7 hPa 0,0 l/m 0 min 0 min 53 W/m 3,2 km/h (1 Bft) 95,74 %
28.08.2023 19:12 19,0 C 18,3 C 14,4 C 79 % 1012,6 hPa 0,0 l/m 0 min 0 min 48 W/m 3,2 km/h (1 Bft) 95,74 %
28.08.2023 19:14 18,9 C 17,8 C 14,4 C 79 % 1012,7 hPa 0,0 l/m 0 min 0 min 46 W/m 3,2 km/h (1 Bft) 97,87 %
28.08.2023 19:16 18,9 C 17,8 C 14,4 C 79 % 1012,7 hPa 0,0 l/m 0 min 0 min 43 W/m 6,4 km/h (2 Bft) 97,87 %
28.08.2023 19:18 18,9 C 17,8 C 14,4 C 79 % 1012,6 hPa 0,0 l/m 0 min 0 min 42 W/m 3,2 km/h (1 Bft) 95,74 %
28.08.2023 19:20 18,8 C 17,8 C 13,9 C 79 % 1012,6 hPa 0,0 l/m 0 min 0 min 40 W/m 3,2 km/h (1 Bft) 97,83 %
28.08.2023 19:22 18,8 C 17,8 C 13,9 C 79 % 1012,7 hPa 0,0 l/m 0 min 0 min 38 W/m 0,0 km/h (0 Bft) 93,62 %
28.08.2023 19:24 18,8 C 17,8 C 13,9 C 79 % 1012,6 hPa 0,0 l/m 0 min 0 min 36 W/m 3,2 km/h (1 Bft) 93,62 %
28.08.2023 19:26 18,8 C 17,8 C 13,9 C 79 % 1012,6 hPa 0,0 l/m 0 min 0 min 34 W/m 0,0 km/h (0 Bft) 97,87 %
28.08.2023 19:28 18,7 C 17,8 C 13,9 C 80 % 1012,7 hPa 0,0 l/m 0 min 0 min 33 W/m 3,2 km/h (1 Bft) 97,87 %
28.08.2023 19:30 18,7 C 17,8 C 13,9 C 80 % 1012,7 hPa 0,0 l/m 0 min 0 min 33 W/m 0,0 km/h (0 Bft) 97,87 %
28.08.2023 19:32 18,7 C 17,8 C 13,9 C 80 % 1012,7 hPa 0,0 l/m 0 min 0 min 32 W/m 3,2 km/h (1 Bft) 95,65 %
28.08.2023 19:34 18,6 C 17,8 C 13,9 C 81 % 1012,7 hPa 0,0 l/m 0 min 0 min 28 W/m 3,2 km/h (1 Bft) 95,74 %
28.08.2023 19:36 18,6 C 17,2 C 13,9 C 81 % 1012,7 hPa 0,0 l/m 0 min 0 min 26 W/m 3,2 km/h (1 Bft) 95,74 %
28.08.2023 19:38 18,6 C 17,2 C 13,9 C 81 % 1012,6 hPa 0,0 l/m 0 min 0 min 24 W/m 6,4 km/h (2 Bft) 97,87 %
28.08.2023 19:40 18,6 C 17,2 C 13,9 C 81 % 1012,6 hPa 0,0 l/m 0 min 0 min 21 W/m 3,2 km/h (1 Bft) 95,74 %
28.08.2023 19:42 18,5 C 17,2 C 13,9 C 82 % 1012,6 hPa 0,0 l/m 0 min 0 min 19 W/m 3,2 km/h (1 Bft) 93,62 %
28.08.2023 19:44 18,5 C 17,2 C 13,9 C 82 % 1012,6 hPa 0,0 l/m 0 min 0 min 18 W/m 3,2 km/h (1 Bft) 95,74 %
28.08.2023 19:46 18,4 C 17,2 C 13,9 C 82 % 1012,7 hPa 0,0 l/m 0 min 0 min 18 W/m 3,2 km/h (1 Bft) 93,48 %
28.08.2023 19:48 18,4 C 17,2 C 13,3 C 83 % 1012,7 hPa 0,0 l/m 0 min 0 min 16 W/m 3,2 km/h (1 Bft) 91,49 %
28.08.2023 19:50 18,4 C 17,2 C 13,3 C 83 % 1012,7 hPa 0,0 l/m 0 min 0 min 15 W/m 3,2 km/h (1 Bft) 97,87 %
28.08.2023 19:52 18,4 C 17,2 C 13,3 C 83 % 1012,7 hPa 0,0 l/m 0 min 0 min 13 W/m 0,0 km/h (0 Bft) 95,74 %
28.08.2023 19:54 18,4 C 16,7 C 13,3 C 83 % 1012,6 hPa 0,0 l/m 0 min 0 min 11 W/m 3,2 km/h (1 Bft) 95,74 %
28.08.2023 19:56 18,3 C 16,7 C 13,3 C 84 % 1012,6 hPa 0,0 l/m 0 min 0 min 10 W/m 0,0 km/h (0 Bft) 97,87 %
28.08.2023 19:58 18,3 C 16,7 C 13,3 C 84 % 1012,6 hPa 0,0 l/m 0 min 0 min 9 W/m 0,0 km/h (0 Bft) 97,83 %
28.08.2023 20:00 18,3 C 16,7 C 13,3 C 84 % 1012,6 hPa 0,0 l/m 0 min 0 min 7 W/m 0,0 km/h (0 Bft) 95,74 %
28.08.2023 20:02 18,2 C 16,7 C 12,8 C 84 % 1012,6 hPa 0,0 l/m 0 min 0 min 6 W/m 0,0 km/h (0 Bft) 97,87 %
28.08.2023 20:04 18,2 C 16,7 C 12,8 C 85 % 1012,6 hPa 0,0 l/m 0 min 0 min 5 W/m 0,0 km/h (0 Bft) 98,00 %
28.08.2023 20:06 18,2 C 16,1 C 12,8 C 85 % 1012,6 hPa 0,0 l/m 0 min 0 min 5 W/m 0,0 km/h (0 Bft) 96,55 %
28.08.2023 20:08 18,1 C 16,1 C 12,8 C 85 % 1012,6 hPa 0,0 l/m 0 min 0 min 5 W/m 0,0 km/h (0 Bft) 97,22 %
28.08.2023 20:10 18,1 C 16,1 C 12,8 C 85 % 1012,6 hPa 0,0 l/m 0 min 0 min 5 W/m 0,0 km/h (0 Bft) 97,83 %
28.08.2023 20:12 18,1 C 16,1 C 12,8 C 86 % 1012,6 hPa 0,0 l/m 0 min 0 min 0 W/m 0,0 km/h (0 Bft) 97,87 %
28.08.2023 20:14 18,1 C 16,1 C 12,8 C 86 % 1012,7 hPa 0,0 l/m 0 min 0 min 0 W/m 0,0 km/h (0 Bft) 95,74 %
28.08.2023 20:16 18,1 C 16,1 C 12,8 C 86 % 1012,7 hPa 0,0 l/m 0 min 0 min 0 W/m 0,0 km/h (0 Bft) 95,74 %
28.08.2023 20:18 18,1 C 16,1 C 12,8 C 86 % 1012,7 hPa 0,0 l/m 0 min 0 min 0 W/m 0,0 km/h (0 Bft) 97,87 %
28.08.2023 20:20 18,0 C 16,1 C 12,8 C 87 % 1012,6 hPa 0,0 l/m 0 min 0 min 0 W/m 0,0 km/h (0 Bft) 97,87 %
28.08.2023 20:22 18,0 C 16,1 C 12,8 C 87 % 1012,6 hPa 0,0 l/m 0 min 0 min 0 W/m 0,0 km/h (0 Bft) 95,65 %
28.08.2023 20:24 18,0 C 16,1 C 12,8 C 87 % 1012,6 hPa 0,0 l/m 0 min 0 min 0 W/m 0,0 km/h (0 Bft) 97,87 %
28.08.2023 20:26 17,9 C 16,1 C 12,8 C 87 % 1012,6 hPa 0,0 l/m 0 min 0 min 0 W/m 0,0 km/h (0 Bft) 100,00 %
28.08.2023 20:28 17,9 C 16,1 C 12,8 C 88 % 1012,7 hPa 0,0 l/m 0 min 0 min 0 W/m 3,2 km/h (1 Bft) 100,00 %
28.08.2023 20:30 17,9 C 16,7 C 12,8 C 88 % 1012,7 hPa 0,0 l/m 0 min 0 min 0 W/m 0,0 km/h (0 Bft) 97,87 %
28.08.2023 20:32 17,9 C 16,7 C 12,8 C 88 % 1012,7 hPa 0,0 l/m 0 min 0 min 0 W/m 0,0 km/h (0 Bft) 97,87 %
28.08.2023 20:34 17,9 C 16,7 C 12,8 C 88 % 1012,8 hPa 0,0 l/m 0 min 0 min 0 W/m 16,1 km/h (3 Bft) 97,87 %
28.08.2023 20:36 17,8 C 16,7 C 12,8 C 88 % 1012,8 hPa 0,0 l/m 0 min 0 min 0 W/m 9,7 km/h (2 Bft) 95,65 %
28.08.2023 20:38 17,8 C 16,7 C 12,8 C 88 % 1012,8 hPa 0,0 l/m 0 min 0 min 0 W/m 12,9 km/h (3 Bft) 97,87 %
28.08.2023 20:40 17,7 C 16,7 C 12,8 C 87 % 1012,8 hPa 0,0 l/m 0 min 0 min 0 W/m 9,7 km/h (2 Bft) 97,87 %
28.08.2023 20:42 17,7 C 16,7 C 12,8 C 87 % 1012,8 hPa 0,0 l/m 0 min 0 min 0 W/m 12,9 km/h (3 Bft) 95,74 %
28.08.2023 20:44 17,6 C 16,7 C 12,8 C 87 % 1012,9 hPa 0,0 l/m 0 min 0 min 0 W/m 3,2 km/h (1 Bft) 97,87 %
28.08.2023 20:46 17,6 C 16,7 C 12,8 C 86 % 1012,9 hPa 0,0 l/m 0 min 0 min 0 W/m 3,2 km/h (1 Bft) 97,87 %
28.08.2023 20:48 17,6 C 16,7 C 12,8 C 86 % 1012,9 hPa 0,0 l/m 0 min 0 min 0 W/m 9,7 km/h (2 Bft) 97,83 %
28.08.2023 20:50 17,6 C 16,7 C 12,8 C 86 % 1012,9 hPa 0,0 l/m 0 min 0 min 0 W/m 0,0 km/h (0 Bft) 97,87 %
28.08.2023 20:52 17,6 C 16,7 C 12,8 C 85 % 1013,0 hPa 0,0 l/m 0 min 0 min 0 W/m 0,0 km/h (0 Bft) 97,87 %
28.08.2023 20:54 17,6 C 16,7 C 12,8 C 85 % 1013,0 hPa 0,0 l/m 0 min 0 min 0 W/m 3,2 km/h (1 Bft) 97,87 %
28.08.2023 20:56 17,6 C 16,7 C 12,8 C 85 % 1013,0 hPa 0,0 l/m 0 min 0 min 0 W/m 3,2 km/h (1 Bft) 100,00 %
28.08.2023 20:58 17,6 C 16,7 C 12,8 C 85 % 1013,1 hPa 0,0 l/m 0 min 0 min 0 W/m 3,2 km/h (1 Bft) 97,87 %
28.08.2023 21:00 17,6 C 16,7 C 12,8 C 85 % 1013,0 hPa 0,0 l/m 0 min 0 min 0 W/m 3,2 km/h (1 Bft) 100,00 %
28.08.2023 21:02 17,6 C 16,7 C 12,8 C 85 % 1013,0 hPa 0,0 l/m 0 min 0 min 0 W/m 3,2 km/h (1 Bft) 100,00 %
28.08.2023 21:04 17,6 C 16,7 C 12,8 C 85 % 1013,0 hPa 0,0 l/m 0 min 0 min 0 W/m 3,2 km/h (1 Bft) 100,00 %
28.08.2023 21:06 17,6 C 16,7 C 12,8 C 85 % 1013,0 hPa 0,0 l/m 0 min 0 min 0 W/m 6,4 km/h (2 Bft) 100,00 %
28.08.2023 21:08 17,6 C 16,7 C 12,8 C 85 % 1013,1 hPa 0,0 l/m 0 min 0 min 0 W/m 3,2 km/h (1 Bft) 100,00 %
28.08.2023 21:10 17,5 C 16,7 C 12,8 C 85 % 1013,1 hPa 0,0 l/m 0 min 0 min 0 W/m 3,2 km/h (1 Bft) 100,00 %
28.08.2023 21:12 17,5 C 16,7 C 12,8 C 85 % 1013,1 hPa 0,0 l/m 0 min 0 min 0 W/m 0,0 km/h (0 Bft) 100,00 %
28.08.2023 21:14 17,5 C 16,7 C 12,8 C 85 % 1013,2 hPa 0,0 l/m 0 min 0 min 0 W/m 3,2 km/h (1 Bft) 100,00 %
28.08.2023 21:16 17,5 C 16,7 C 12,8 C 85 % 1013,2 hPa 0,0 l/m 0 min 0 min 0 W/m 3,2 km/h (1 Bft) 100,00 %
28.08.2023 21:18 17,5 C 16,7 C 12,8 C 85 % 1013,2 hPa 0,0 l/m 0 min 0 min 0 W/m 3,2 km/h (1 Bft) 100,00 %
28.08.2023 21:20 17,5 C 16,7 C 12,8 C 85 % 1013,3 hPa 0,0 l/m 0 min 0 min 0 W/m 3,2 km/h (1 Bft) 100,00 %
28.08.2023 21:22 17,5 C 16,7 C 12,8 C 85 % 1013,3 hPa 0,0 l/m 0 min 0 min 0 W/m 0,0 km/h (0 Bft) 100,00 %
28.08.2023 21:24 17,4 C 16,7 C 12,8 C 84 % 1013,3 hPa 0,0 l/m 0 min 0 min 0 W/m 3,2 km/h (1 Bft) 100,00 %
28.08.2023 21:26 17,4 C 16,7 C 12,8 C 84 % 1013,3 hPa 0,0 l/m 0 min 0 min 0 W/m 0,0 km/h (0 Bft) 100,00 %
28.08.2023 21:28 17,4 C 16,7 C 12,8 C 84 % 1013,3 hPa 0,0 l/m 0 min 0 min 0 W/m 0,0 km/h (0 Bft) 100,00 %
28.08.2023 21:30 17,4 C 16,7 C 12,8 C 84 % 1013,3 hPa 0,0 l/m 0 min 0 min 0 W/m 0,0 km/h (0 Bft) 97,87 %
28.08.2023 21:32 17,4 C 16,7 C 12,8 C 84 % 1013,3 hPa 0,0 l/m 0 min 0 min 0 W/m 0,0 km/h (0 Bft) 100,00 %
28.08.2023 21:34 17,4 C 16,7 C 12,8 C 84 % 1013,3 hPa 0,0 l/m 0 min 0 min 0 W/m 0,0 km/h (0 Bft) 100,00 %
28.08.2023 21:36 17,4 C 16,7 C 12,8 C 84 % 1013,3 hPa 0,0 l/m 0 min 0 min 0 W/m 0,0 km/h (0 Bft) 100,00 %
28.08.2023 21:38 17,4 C 16,7 C 12,8 C 84 % 1013,3 hPa 0,0 l/m 0 min 0 min 0 W/m 0,0 km/h (0 Bft) 97,83 %
28.08.2023 21:40 17,4 C 16,1 C 12,8 C 84 % 1013,2 hPa 0,0 l/m 0 min 0 min 0 W/m 0,0 km/h (0 Bft) 100,00 %
28.08.2023 21:42 17,4 C 16,1 C 12,2 C 84 % 1013,2 hPa 0,0 l/m 0 min 0 min 0 W/m 0,0 km/h (0 Bft) 97,87 %
28.08.2023 21:44 17,4 C 16,1 C 12,2 C 84 % 1013,2 hPa 0,0 l/m 0 min 0 min 0 W/m 0,0 km/h (0 Bft) 97,87 %
28.08.2023 21:46 17,3 C 16,1 C 12,2 C 84 % 1013,1 hPa 0,0 l/m 0 min 0 min 0 W/m 0,0 km/h (0 Bft) 100,00 %
28.08.2023 21:48 17,3 C 16,1 C 12,2 C 84 % 1013,1 hPa 0,0 l/m 0 min 0 min 0 W/m 0,0 km/h (0 Bft) 100,00 %
28.08.2023 21:50 17,3 C 16,1 C 12,2 C 84 % 1013,1 hPa 0,0 l/m 0 min 0 min 0 W/m 0,0 km/h (0 Bft) 100,00 %
28.08.2023 21:52 17,3 C 16,1 C 12,2 C 85 % 1013,1 hPa 0,0 l/m 0 min 0 min 0 W/m 0,0 km/h (0 Bft) 97,83 %
28.08.2023 21:54 17,2 C 16,1 C 12,2 C 85 % 1013,1 hPa 0,0 l/m 0 min 0 min 0 W/m 0,0 km/h (0 Bft) 100,00 %
28.08.2023 21:56 17,2 C 16,1 C 12,2 C 85 % 1013,1 hPa 0,0 l/m 0 min 0 min 0 W/m 0,0 km/h (0 Bft) 95,74 %
28.08.2023 21:58 17,2 C 16,1 C 12,2 C 85 % 1013,0 hPa 0,0 l/m 0 min 0 min 0 W/m 0,0 km/h (0 Bft) 97,87 %
28.08.2023 22:00 17,2 C 16,1 C 12,2 C 85 % 1013,0 hPa 0,0 l/m 0 min 0 min 0 W/m 0,0 km/h (0 Bft) 97,87 %
28.08.2023 22:02 17,2 C 16,1 C 12,2 C 85 % 1013,0 hPa 0,0 l/m 0 min 0 min 0 W/m 0,0 km/h (0 Bft) 95,74 %
28.08.2023 22:04 17,1 C 16,1 C 12,2 C 85 % 1013,0 hPa 0,0 l/m 0 min 0 min 0 W/m 0,0 km/h (0 Bft) 97,92 %
28.08.2023 22:06 17,1 C 16,1 C 12,2 C 85 % 1013,0 hPa 0,0 l/m 0 min 0 min 0 W/m 0,0 km/h (0 Bft) 97,87 %
28.08.2023 22:08 17,1 C 16,1 C 12,2 C 85 % 1013,0 hPa 0,0 l/m 0 min 0 min 0 W/m 0,0 km/h (0 Bft) 93,62 %
28.08.2023 22:10 17,1 C 16,1 C 12,2 C 85 % 1013,0 hPa 0,0 l/m 0 min 0 min 0 W/m 0,0 km/h (0 Bft) 95,74 %
28.08.2023 22:12 17,1 C 16,1 C 12,2 C 85 % 1013,0 hPa 0,0 l/m 0 min 0 min 0 W/m 0,0 km/h (0 Bft) 97,87 %
28.08.2023 22:14 17,1 C 16,1 C 12,2 C 85 % 1013,0 hPa 0,0 l/m 0 min 0 min 0 W/m 0,0 km/h (0 Bft) 53,33 %
28.08.2023 22:16 17,1 C 16,1 C 12,2 C 85 % 1013,0 hPa 0,0 l/m 0 min 0 min 0 W/m 0,0 km/h (0 Bft) 97,87 %
28.08.2023 22:18 17,0 C 16,1 C 12,2 C 85 % 1013,0 hPa 0,0 l/m 0 min 0 min 0 W/m 0,0 km/h (0 Bft) 93,48 %
28.08.2023 22:20 17,0 C 16,1 C 12,2 C 85 % 1013,1 hPa 0,0 l/m 0 min 0 min 0 W/m 0,0 km/h (0 Bft) 95,74 %
28.08.2023 22:22 16,9 C 16,1 C 12,2 C 85 % 1013,1 hPa 0,0 l/m 0 min 0 min 0 W/m 0,0 km/h (0 Bft) 95,74 %
28.08.2023 22:24 16,9 C 16,1 C 12,2 C 85 % 1013,2 hPa 0,0 l/m 0 min 0 min 0 W/m 0,0 km/h (0 Bft) 93,62 %
28.08.2023 22:26 16,9 C 16,1 C 12,2 C 85 % 1013,2 hPa 0,0 l/m 0 min 0 min 0 W/m 0,0 km/h (0 Bft) 91,49 %
28.08.2023 22:28 16,9 C 16,1 C 12,2 C 85 % 1013,2 hPa 0,0 l/m 0 min 0 min 0 W/m 0,0 km/h (0 Bft) 91,49 %
28.08.2023 22:30 16,9 C 16,1 C 12,2 C 86 % 1013,2 hPa 0,0 l/m 0 min 0 min 0 W/m 0,0 km/h (0 Bft) 91,30 %
28.08.2023 22:32 16,9 C 16,1 C 12,2 C 86 % 1013,2 hPa 0,0 l/m 0 min 0 min 0 W/m 0,0 km/h (0 Bft) 93,62 %
28.08.2023 22:34 16,9 C 16,1 C 12,2 C 86 % 1013,2 hPa 0,0 l/m 0 min 0 min 0 W/m 0,0 km/h (0 Bft) 93,62 %
28.08.2023 22:36 16,8 C 16,1 C 12,2 C 86 % 1013,2 hPa 0,0 l/m 0 min 0 min 0 W/m 0,0 km/h (0 Bft) 91,49 %
28.08.2023 22:38 16,8 C 15,6 C 12,2 C 86 % 1013,2 hPa 0,0 l/m 0 min 0 min 0 W/m 0,0 km/h (0 Bft) 95,74 %
28.08.2023 22:40 16,8 C 15,6 C 12,2 C 86 % 1013,2 hPa 0,0 l/m 0 min 0 min 0 W/m 0,0 km/h (0 Bft) 93,62 %
28.08.2023 22:42 16,8 C 15,6 C 12,2 C 86 % 1013,2 hPa 0,0 l/m 0 min 0 min 0 W/m 0,0 km/h (0 Bft) 91,30 %
28.08.2023 22:44 16,8 C 15,6 C 12,2 C 86 % 1013,2 hPa 0,0 l/m 0 min 0 min 0 W/m 3,2 km/h (1 Bft) 91,49 %
28.08.2023 22:46 16,7 C 15,6 C 12,2 C 86 % 1013,2 hPa 0,0 l/m 0 min 0 min 0 W/m 6,4 km/h (2 Bft) 93,62 %
28.08.2023 22:48 16,7 C 15,6 C 11,7 C 86 % 1013,2 hPa 0,0 l/m 0 min 0 min 0 W/m 3,2 km/h (1 Bft) 93,62 %
28.08.2023 22:50 16,7 C 15,6 C 11,7 C 86 % 1013,2 hPa 0,0 l/m 0 min 0 min 0 W/m 3,2 km/h (1 Bft) 95,74 %
28.08.2023 22:52 16,6 C 15,6 C 11,7 C 86 % 1013,2 hPa 0,0 l/m 0 min 0 min 0 W/m 6,4 km/h (2 Bft) 97,87 %
28.08.2023 22:54 16,6 C 15,6 C 11,7 C 86 % 1013,2 hPa 0,0 l/m 0 min 0 min 0 W/m 6,4 km/h (2 Bft) 95,74 %
28.08.2023 22:56 16,6 C 15,6 C 11,7 C 86 % 1013,3 hPa 0,0 l/m 0 min 0 min 0 W/m 3,2 km/h (1 Bft) 97,83 %
28.08.2023 22:58 16,6 C 15,6 C 11,7 C 87 % 1013,3 hPa 0,0 l/m 0 min 0 min 0 W/m 3,2 km/h (1 Bft) 95,74 %
28.08.2023 23:00 16,6 C 15,6 C 11,7 C 87 % 1013,3 hPa 0,0 l/m 0 min 0 min 0 W/m 3,2 km/h (1 Bft) 95,74 %
28.08.2023 23:02 16,6 C 15,6 C 11,7 C 87 % 1013,3 hPa 0,0 l/m 0 min 0 min 0 W/m 0,0 km/h (0 Bft) 97,87 %
28.08.2023 23:04 16,6 C 15,6 C 11,7 C 87 % 1013,3 hPa 0,0 l/m 0 min 0 min 0 W/m 0,0 km/h (0 Bft) 96,00 %
28.08.2023 23:06 16,6 C 15,6 C 11,7 C 87 % 1013,4 hPa 0,0 l/m 0 min 0 min 0 W/m 3,2 km/h (1 Bft) 95,74 %
28.08.2023 23:08 16,6 C 15,6 C 11,7 C 87 % 1013,4 hPa 0,0 l/m 0 min 0 min 0 W/m 0,0 km/h (0 Bft) 95,74 %
28.08.2023 23:10 16,6 C 15,6 C 11,7 C 88 % 1013,4 hPa 0,0 l/m 0 min 0 min 0 W/m 0,0 km/h (0 Bft) 100,00 %
28.08.2023 23:12 16,6 C 15,6 C 11,7 C 88 % 1013,4 hPa 0,0 l/m 0 min 0 min 0 W/m 3,2 km/h (1 Bft) 100,00 %
28.08.2023 23:14 16,6 C 15,6 C 11,7 C 88 % 1013,5 hPa 0,0 l/m 0 min 0 min 0 W/m 3,2 km/h (1 Bft) 100,00 %
28.08.2023 23:16 16,6 C 15,6 C 11,7 C 88 % 1013,4 hPa 0,0 l/m 0 min 0 min 0 W/m 0,0 km/h (0 Bft) 95,74 %
28.08.2023 23:18 16,5 C 15,6 C 11,7 C 88 % 1013,5 hPa 0,0 l/m 0 min 0 min 0 W/m 6,4 km/h (2 Bft) 100,00 %
28.08.2023 23:20 16,6 C 15,6 C 11,7 C 88 % 1013,5 hPa 0,0 l/m 0 min 0 min 0 W/m 3,2 km/h (1 Bft) 100,00 %
28.08.2023 23:22 16,5 C 15,6 C 11,7 C 88 % 1013,5 hPa 0,0 l/m 0 min 0 min 0 W/m 3,2 km/h (1 Bft) 97,83 %
28.08.2023 23:24 16,5 C 15,6 C 11,7 C 88 % 1013,5 hPa 0,0 l/m 0 min 0 min 0 W/m 3,2 km/h (1 Bft) 100,00 %
28.08.2023 23:26 16,5 C 15,6 C 11,7 C 88 % 1013,5 hPa 0,0 l/m 0 min 0 min 0 W/m 3,2 km/h (1 Bft) 100,00 %
28.08.2023 23:28 16,5 C 15,6 C 11,7 C 88 % 1013,5 hPa 0,0 l/m 0 min 0 min 0 W/m 3,2 km/h (1 Bft) 100,00 %
28.08.2023 23:30 16,4 C 15,6 C 11,7 C 88 % 1013,4 hPa 0,0 l/m 0 min 0 min 0 W/m 3,2 km/h (1 Bft) 100,00 %
28.08.2023 23:32 16,4 C 15,6 C 11,7 C 88 % 1013,4 hPa 0,0 l/m 0 min 0 min 0 W/m 6,4 km/h (2 Bft) 97,87 %
28.08.2023 23:34 16,4 C 15,6 C 11,7 C 88 % 1013,4 hPa 0,0 l/m 0 min 0 min 0 W/m 6,4 km/h (2 Bft) 100,00 %
28.08.2023 23:36 16,4 C 15,6 C 11,7 C 88 % 1013,4 hPa 0,0 l/m 0 min 0 min 0 W/m 9,7 km/h (2 Bft) 97,83 %
28.08.2023 23:38 16,4 C 15,6 C 11,7 C 88 % 1013,4 hPa 0,0 l/m 0 min 0 min 0 W/m 3,2 km/h (1 Bft) 100,00 %
28.08.2023 23:40 16,3 C 15,6 C 11,7 C 88 % 1013,4 hPa 0,0 l/m 0 min 0 min 0 W/m 3,2 km/h (1 Bft) 100,00 %
28.08.2023 23:42 16,3 C 15,6 C 11,7 C 88 % 1013,3 hPa 0,0 l/m 0 min 0 min 0 W/m 6,4 km/h (2 Bft) 100,00 %
28.08.2023 23:44 16,3 C 15,6 C 11,7 C 88 % 1013,3 hPa 0,0 l/m 0 min 0 min 0 W/m 3,2 km/h (1 Bft) 100,00 %
28.08.2023 23:46 16,3 C 15,6 C 11,7 C 89 % 1013,3 hPa 0,0 l/m 0 min 0 min 0 W/m 3,2 km/h (1 Bft) 100,00 %
28.08.2023 23:48 16,3 C 15,6 C 11,7 C 89 % 1013,2 hPa 0,0 l/m 0 min 0 min 0 W/m 6,4 km/h (2 Bft) 100,00 %
28.08.2023 23:50 16,3 C 15,0 C 11,7 C 89 % 1013,2 hPa 0,0 l/m 0 min 0 min 0 W/m 3,2 km/h (1 Bft) 100,00 %
28.08.2023 23:52 16,2 C 15,0 C 11,7 C 89 % 1013,1 hPa 0,0 l/m 0 min 0 min 0 W/m 3,2 km/h (1 Bft) 97,87 %
28.08.2023 23:54 16,2 C 15,0 C 11,7 C 89 % 1013,1 hPa 0,0 l/m 0 min 0 min 0 W/m 6,4 km/h (2 Bft) 97,87 %
28.08.2023 23:56 16,2 C 15,0 C 11,7 C 89 % 1013,1 hPa 0,0 l/m 0 min 0 min 0 W/m 6,4 km/h (2 Bft) 100,00 %
28.08.2023 23:58 16,2 C 15,0 C 11,1 C 89 % 1013,1 hPa 0,0 l/m 0 min 0 min 0 W/m 6,4 km/h (2 Bft) 100,00 %
_ Min-Zeit 08:00 08:00 08:00 14:14 15:26 - - - - 08:00 22:14
Minimum _ 11,6 C 11,1 C 0,0 C 69 % 1012,2 hPa - - - - 0,0 km/h (0 Bft) 53,33 %
_ Max-Zeit 15:28 14:08 14:54 08:40 23:14 08:00 08:56 08:00 14:10 11:20 08:00
Maximum _ 20,6 C 23,3 C 16,7 C 98 % 1013,5 hPa 0,0 l/m 5 min 0 min 731 W/m 16,1 km/h
NW (3 Bft)
100,00 %
Durchschnitt _ 17,0 C 17,0 C 12,0 C 84 % 1012,7 hPa #0,0 l/m #3:05 h #0 min. 203 W/m 4,0 km/h (1 Bft) 97,80 %
© 2023 W. Hausmann